F00

Jones Field Airport

Bonham, Texas, USA
METAR KF00 261315Z AUTO 33004KT 10SM CLR 09/06 A3005 RMK AO2 T00860061
Observed Flight Rules
Apr-26 @ 13:15 UTC (25 minutes ago) Visual Flight Rules
Wind Visibility Clouds
330° at 4 knots 10 miles
  • Clear skies
Temperatures Readings
Current 9°C / 48°F
Dewpoint 6°C / 43°F
Humidity 82%
Altimeter 30.05" Hg
Pressure 1018 hPa
Elevation 188
METAR KF00 261315Z AUTO 33004KT 10SM CLR 09/06 A3005 RMK AO2 T00860061
Observed Flight Rules
Apr-26 @ 13:15 UTC
(25 minutes ago)
VFR
Wind Visibility
330° at 4 knots 10 miles
Clouds
  • Clear skies
Temperature Dewpoint
9°C / 48°F 6°C / 43°F
Humidity Altimeter Pressure
82% 30.05" Hg 1018 hPa